Map

Track Data

SID SEASON NUMBER BASIN SUBBASIN NAME ISO_TIME NATURE LAT LON WMO_WIND WMO_PRES WMO_AGENCY TRACK_TYPE DIST2LAND LANDFALL IFLAG USA_AGENCY USA_ATCF_ID USA_LAT USA_LON USA_RECORD USA_STATUS USA_WIND USA_PRES USA_SSHS USA_R34_NE USA_R34_SE USA_R34_SW USA_R34_NW USA_R50_NE USA_R50_SE USA_R50_SW USA_R50_NW USA_R64_NE USA_R64_SE USA_R64_SW USA_R64_NW USA_POCI USA_ROCI USA_RMW USA_EYE TOKYO_LAT TOKYO_LON TOKYO_GRADE TOKYO_WIND TOKYO_PRES TOKYO_R50_DIR TOKYO_R50_LONG TOKYO_R50_SHORT TOKYO_R30_DIR TOKYO_R30_LONG TOKYO_R30_SHORT TOKYO_LAND CMA_LAT CMA_LON CMA_CAT CMA_WIND CMA_PRES HKO_LAT HKO_LON HKO_CAT HKO_WIND HKO_PRES NEWDELHI_LAT NEWDELHI_LON NEWDELHI_GRADE NEWDELHI_WIND NEWDELHI_PRES NEWDELHI_CI NEWDELHI_DP NEWDELHI_POCI REUNION_LAT REUNION_LON REUNION_TYPE REUNION_WIND REUNION_PRES REUNION_TNUM REUNION_CI REUNION_RMW REUNION_R34_NE REUNION_R34_SE REUNION_R34_SW REUNION_R34_NW REUNION_R50_NE REUNION_R50_SE REUNION_R50_SW REUNION_R50_NW REUNION_R64_NE REUNION_R64_SE REUNION_R64_SW REUNION_R64_NW BOM_LAT BOM_LON BOM_TYPE BOM_WIND BOM_PRES BOM_TNUM BOM_CI BOM_RMW BOM_R34_NE BOM_R34_SE BOM_R34_SW BOM_R34_NW BOM_R50_NE BOM_R50_SE BOM_R50_SW BOM_R50_NW BOM_R64_NE BOM_R64_SE BOM_R64_SW BOM_R64_NW BOM_ROCI BOM_POCI BOM_EYE BOM_POS_METHOD BOM_PRES_METHOD NADI_LAT NADI_LON NADI_CAT NADI_WIND NADI_PRES WELLINGTON_LAT WELLINGTON_LON WELLINGTON_WIND WELLINGTON_PRES DS824_LAT DS824_LON DS824_STAGE DS824_WIND DS824_PRES TD9636_LAT TD9636_LON TD9636_STAGE TD9636_WIND TD9636_PRES TD9635_LAT TD9635_LON TD9635_WIND TD9635_PRES TD9635_ROCI NEUMANN_LAT NEUMANN_LON NEUMANN_CLASS NEUMANN_WIND NEUMANN_PRES MLC_LAT MLC_LON MLC_CLASS MLC_WIND MLC_PRES USA_GUST BOM_GUST BOM_GUST_PER REUNION_GUST REUNION_GUST_PER USA_SEAHGT USA_SEARAD_NE USA_SEARAD_SE USA_SEARAD_SW USA_SEARAD_NW STORM_SPEED STORM_DIR
1888001S17071 1888 3 SI MM NOT_NAMED 1888-01-01 06:00:00 NR -17.2500 71.3500 reunion main 1472 1449 _____O____O___ -1 -17.2000 71.7000 99 9.90000 -17.3000 71.0000 7 3 258
1888001S17071 1888 3 SI MM NOT_NAMED 1888-01-01 09:00:00 NR -17.2777 71.2124 main 1449 1439 _____P____P___ -1 -17.2225 71.6154 99 -17.3329 70.8093 7 3 257
1888001S17071 1888 3 SI MM NOT_NAMED 1888-01-01 12:00:00 NR -17.3090 71.0715 main 1439 1418 _____P____P___ -1 -17.2453 71.5282 99 -17.3726 70.6149 7 3 256
1888001S17071 1888 3 SI MM NOT_NAMED 1888-01-01 15:00:00 NR -17.3473 70.9243 main 1418 1405 _____P____P___ -1 -17.2685 71.4356 99 -17.4260 70.4130 7 3 253
1888001S17071 1888 3 SI MM NOT_NAMED 1888-01-01 18:00:00 NR -17.3962 70.7675 main 1405 1382 _____P____O___ -1 -17.2924 71.3351 99 -17.5000 70.2000 7 3 251
1888001S17071 1888 3 SI MM NOT_NAMED 1888-01-01 21:00:00 NR -17.4575 70.5983 main 1382 1361 _____P____P___ -1 -17.3173 71.2239 99 -17.5977 69.9726 7 4 249
1888001S17071 1888 3 SI MM NOT_NAMED 1888-01-02 00:00:00 NR -17.5254 70.4148 main 1361 1338 _____P____P___ -1 -17.3434 71.0994 99 -17.7074 69.7302 7 4 250
1888001S17071 1888 3 SI MM NOT_NAMED 1888-01-02 03:00:00 NR -17.5921 70.2158 main 1338 1317 _____P____P___ -1 -17.3709 70.9590 99 -17.8133 69.4726 7 4 253
1888001S17071 1888 3 SI MM NOT_NAMED 1888-01-02 06:00:00 NR -17.6500 70.0000 reunion main 1317 1294 _____O____O___ -1 -17.4000 70.8000 99 9.90000 -17.9000 69.2000 7 4 257
1888001S17071 1888 3 SI MM NOT_NAMED 1888-01-02 09:00:00 NR -17.6866 69.7713 main 1294 1263 _____P____P___ -1 -17.4309 70.6204 99 -17.9424 68.9223 7 5 262
1888001S17071 1888 3 SI MM NOT_NAMED 1888-01-02 12:00:00 NR -17.7142 69.5254 main 1263 1243 _____P____P___ -1 -17.4636 70.4211 99 -17.9648 68.6297 7 5 264
1888001S17071 1888 3 SI MM NOT_NAMED 1888-01-02 15:00:00 NR -17.7390 69.2630 main 1243 1209 _____P____P___ -1 -17.4982 70.2037 99 -17.9798 68.3223 7 5 264
1888001S17071 1888 3 SI MM NOT_NAMED 1888-01-02 18:00:00 NR -17.7673 68.9848 main 1209 1179 _____P____O___ -1 -17.5347 69.9697 99 -18.0000 68.0000 7 5 263
1888001S17071 1888 3 SI MM NOT_NAMED 1888-01-02 21:00:00 NR -17.8058 68.7007 main 1179 1148 _____P____P___ -1 -17.5731 69.7208 99 -18.0385 67.6805 7 6 262
1888001S17071 1888 3 SI MM NOT_NAMED 1888-01-03 00:00:00 NR -17.8490 68.4017 main 1148 1114 _____P____P___ -1 -17.6134 69.4585 99 -18.0845 67.3448 7 6 261
1888001S17071 1888 3 SI MM NOT_NAMED 1888-01-03 03:00:00 NR -17.8970 68.0855 main 1114 1084 _____P____P___ -1 -17.6557 69.1844 99 -18.1384 66.9867 7 6 261
1888001S17071 1888 3 SI MM NOT_NAMED 1888-01-03 06:00:00 NR -17.9500 67.7500 reunion main 1084 1040 _____O____O___ -1 -17.7000 68.9000 99 9.90000 -18.2000 66.6000 7 7 260
1888001S17071 1888 3 SI MM NOT_NAMED 1888-01-03 09:00:00 NR -18.0073 67.4105 main 1040 1006 _____P____P___ -1 -17.7428 68.6381 99 -18.2718 66.1829 7 7 260
1888001S17071 1888 3 SI MM NOT_NAMED 1888-01-03 12:00:00 NR -18.0687 67.0520 main 1006 966 _____P____P___ -1 -17.7875 68.3663 99 -18.3499 65.7376 7 7 260
1888001S17071 1888 3 SI MM NOT_NAMED 1888-01-03 15:00:00 NR -18.1311 66.6780 main 966 922 _____P____P___ -1 -17.8342 68.0824 99 -18.4280 65.2735 7 7 260
1888001S17071 1888 3 SI MM NOT_NAMED 1888-01-03 18:00:00 NR -18.1915 66.2921 main 922 882 _____P____O___ -1 -17.8830 67.7841 99 -18.5000 64.8000 7 7 261
1888001S17071 1888 3 SI MM NOT_NAMED 1888-01-03 21:00:00 NR -18.2433 65.9045 main 882 838 _____P____P___ -1 -17.9339 67.4690 99 -18.5527 64.3400 7 8 262
1888001S17071 1888 3 SI MM NOT_NAMED 1888-01-04 00:00:00 NR -18.2932 65.5035 main 838 798 _____P____P___ -1 -17.9870 67.1349 99 -18.5994 63.8721 7 8 263
1888001S17071 1888 3 SI MM NOT_NAMED 1888-01-04 03:00:00 NR -18.3444 65.0862 main 798 754 _____P____P___ -1 -18.0424 66.7793 99 -18.6464 63.3931 7 8 262
1888001S17071 1888 3 SI MM NOT_NAMED 1888-01-04 06:00:00 NR -18.4000 64.6500 reunion main 754 700 _____O____O___ -1 -18.1000 66.4000 99 9.90000 -18.7000 62.9000 7 9 262
1888001S17071 1888 3 SI MM NOT_NAMED 1888-01-04 09:00:00 NR -18.4647 64.1940 main 700 650 _____P____P___ -1 -18.1577 66.0027 99 -18.7648 62.3907 7 9 261
1888001S17071 1888 3 SI MM NOT_NAMED 1888-01-04 12:00:00 NR -18.5337 63.7194 main 650 607 _____P____P___ -1 -18.2176 65.5812 99 -18.8388 61.8681 7 9 261
1888001S17071 1888 3 SI MM NOT_NAMED 1888-01-04 15:00:00 NR -18.6035 63.2322 main 597 553 _____P____P___ -1 -18.2791 65.1383 99 -18.9184 61.3365 7 9 262
1888001S17071 1888 3 SI MM NOT_NAMED 1888-01-04 18:00:00 NR -18.6709 62.7384 main 543 524 _____P____O___ -1 -18.3419 64.6768 99 -19.0000 60.8000 7 7 263
1888001S17071 1888 3 SI MM NOT_NAMED 1888-01-04 21:00:00 NR -18.6827 62.5355 main 524 514 _____P________ -1 -18.4057 64.1995 99 7 3 268
1888001S17071 1888 3 SI MM NOT_NAMED 1888-01-05 00:00:00 NR -18.6796 62.4184 main 514 514 _____P________ -1 -18.4702 63.7091 99 7 1 285
1888001S17071 1888 3 SI MM NOT_NAMED 1888-01-05 03:00:00 NR -18.6572 62.4344 main 514 514 _____P________ -1 -18.5350 63.2083 99 7 3 73
1888001S17071 1888 3 SI MM NOT_NAMED 1888-01-05 06:00:00 NR -18.6000 62.7000 reunion main 547 504 _____O________ -1 -18.6000 62.7000 99 9.90000 2 269
1888001S17071 1888 3 SI MM NOT_NAMED 1888-01-05 09:00:00 NR -18.6608 62.2244 main 494 455 _____P________ -1 -18.6608 62.2244 99 9 262
1888001S17071 1888 3 SI MM NOT_NAMED 1888-01-05 12:00:00 NR -18.7218 61.7415 main 446 403 _____P________ -1 -18.7218 61.7415 99 9 262
1888001S17071 1888 3 SI MM NOT_NAMED 1888-01-05 15:00:00 NR -18.7831 61.2481 main 393 356 _____P________ -1 -18.7831 61.2481 99 10 263
1888001S17071 1888 3 SI MM NOT_NAMED 1888-01-05 18:00:00 NR -18.8449 60.7405 main 346 294 _____P________ -1 -18.8449 60.7405 99 10 263
1888001S17071 1888 3 SI MM NOT_NAMED 1888-01-05 21:00:00 NR -18.9075 60.2155 main 294 243 _____P________ -1 -18.9075 60.2155 99 10 263
1888001S17071 1888 3 SI MM NOT_NAMED 1888-01-06 00:00:00 NR -18.9708 59.6694 main 243 191 _____P________ -1 -18.9708 59.6694 99 11 263
1888001S17071 1888 3 SI MM NOT_NAMED 1888-01-06 03:00:00 NR -19.0350 59.0988 main 191 139 _____P________ -1 -19.0350 59.0988 99 11 263
1888001S17071 1888 3 SI MM NOT_NAMED 1888-01-06 06:00:00 NR -19.1000 58.5000 reunion main 139 101 _____O________ -1 -19.1000 58.5000 99 9.90000 13 264
1888001S17071 1888 3 SI MM NOT_NAMED 1888-01-06 09:00:00 NR -19.1761 57.7785 main 101 100 _____P________ -1 -19.1761 57.7785 99 14 264
1888001S17071 1888 3 SI MM NOT_NAMED 1888-01-06 12:00:00 NR -19.2531 57.0163 main 103 103 _____P________ -1 -19.2531 57.0163 99 15 264
1888001S17071 1888 3 SI MM NOT_NAMED 1888-01-06 15:00:00 NR -19.3283 56.2367 main 162 162 _____P________ -1 -19.3283 56.2367 99 15 264
1888001S17071 1888 3 SI MM NOT_NAMED 1888-01-06 18:00:00 NR -19.3990 55.4630 main 178 175 _____P________ -1 -19.3990 55.4630 99 14 265
1888001S17071 1888 3 SI MM NOT_NAMED 1888-01-06 21:00:00 NR -19.4631 54.7189 main 179 179 _____P________ -1 -19.4631 54.7189 99 14 265
1888001S17071 1888 3 SI MM NOT_NAMED 1888-01-07 00:00:00 NR -19.5189 54.0279 main 215 215 _____P________ -1 -19.5189 54.0279 99 12 265
1888001S17071 1888 3 SI MM NOT_NAMED 1888-01-07 03:00:00 NR -19.5649 53.4137 main 251 251 _____P________ -1 -19.5649 53.4137 99 11 266
1888001S17071 1888 3 SI MM NOT_NAMED 1888-01-07 06:00:00 NR -19.6000 52.9000 reunion main 292 292 _____O________ -1 -19.6000 52.9000 99 9.90000 9 266
1888001S17071 1888 3 SI MM NOT_NAMED 1888-01-07 09:00:00 NR -19.6236 52.5038 main 327 327 _____P________ -1 -19.6236 52.5038 99 6 267
1888001S17071 1888 3 SI MM NOT_NAMED 1888-01-07 12:00:00 NR -19.6373 52.2161 main 330 310 _____P________ -1 -19.6373 52.2161 99 5 268
1888001S17071 1888 3 SI MM NOT_NAMED 1888-01-07 15:00:00 NR -19.6429 52.0214 main 310 300 _____P________ -1 -19.6429 52.0214 99 3 269
1888001S17071 1888 3 SI MM NOT_NAMED 1888-01-07 18:00:00 NR -19.6420 51.9042 main 300 300 _____P________ -1 -19.6420 51.9042 99 2 272
1888001S17071 1888 3 SI MM NOT_NAMED 1888-01-07 21:00:00 NR -19.6359 51.8489 main 291 291 _____P________ -1 -19.6359 51.8489 99 1 287
1888001S17071 1888 3 SI MM NOT_NAMED 1888-01-08 00:00:00 NR -19.6261 51.8401 main 291 291 _____P________ -1 -19.6261 51.8401 99 0 0
1888001S17071 1888 3 SI MM NOT_NAMED 1888-01-08 03:00:00 NR -19.6137 51.8623 main 300 300 _____P________ -1 -19.6137 51.8623 99 1 62
1888001S17071 1888 3 SI MM NOT_NAMED 1888-01-08 06:00:00 NR -19.6000 51.9000 reunion main 300 _____O________ -1 -19.6000 51.9000 99 9.90000 1 70

About IBTrACS Database

This database is a web-friendly format of International Best Track Archive for Climate Stewardship (IBTrACS), a global best track data archive curated by NOAA dating back to 1842.

Updated: 2021-10-19